Pagrindinis puslapis
METAR-TAF:

METAR-TAF

Oro uostai :

Urumčis, Kinija

platuma: 43-54N, ilguma: 087-28E, Aukštis: 654 m

Dabartinis oras

Ataskaita buvo paskelbta 32 minutes, ne 13:30 UTC
Vėjas 6 kt iš Šiaurės
Temperatūra 26°C
Drėgmė 13%
Slėgis 1011 hPa
Matomumas 10 km arba daugiau
nėra debesų žemiau 1500 m ir nėra kamuolinių lietaus debesų

METAR: ZWWW 291330Z 36003MPS CAVOK 26/M05 Q1011 NOSIG

Laikas: 20:02 (14:02 UTC)

Prognozė

Ataskaita buvo paskelbta 5 valandos ir 1 minutes, ne 09:01 UTC
Prognozė galioja nuo 29 metu 12 UTC su 30 metu 12 UTC
Vėjas 8 kt iš Šiaurės/Šiaurės Vakarų su gūsio iki 17 kt
Matomumas 10 km arba daugiau
Mažai debesys ne aukštis 4000 ft, Liūtiniai kamuoliniai debesys.
Tapsmas
nuo 29 metu 13 UTC su 29 metu 14 UTC
Vėjas 8 kt iš Pietų
Matomumas 10 km arba daugiau
nėra debesų žemiau 1500 m ir nėra kamuolinių lietaus debesų
Tapsmas
nuo 30 metu 03 UTC su 30 metu 04 UTC
Vėjas 8 kt iš Šiaurės

TAF: ZWWW 290901Z 2912/3012 33004G09MPS 9999 FEW040CB TX30/3009Z TN20/2923Z BECMG 2913/2914 18004MPS CAVOK BECMG 3003/3004 36004MPS

Orai ataskaitas ir orų prognozės (METAR, TAF).

turimą stotys yra geltonos ir raudonos taškus žemėlapyje.

Perkelti pele per norėdami pamatyti stoties vardą.

Tada spustelėkite, norėdami matyti oro stebėjimo ir prognozės.

Norėdami pakeisti žemėlapį: spustelėkite ant žalios mygtukų su juodo kryžiaus žemyn,; žalią mygtuką su brūkšneliu, jei norite nutolinti; arba žalių rodyklių gretimoms žemėlapius.


METAR-TAF: